Pilot Boat Minera I — HKFH6 — position and weather

sailwx.info

Track history (hours):
 
Tides and Currents Weather Stations Pressure Air Temp Water Temp Dewpoint Dewpoint Depression Visibility Wind Speed Wind Dir Waves Ship Positions

Pilot Boat Minera I

Last reported at 2017-Nov-17 18:47 UTC. Time now 2017-Nov-22 11:13 UTC.
Position N 10°19' W 075°35'.

Length 11 m.

Type: Pilot. MMSI: 730114000.

Date/timePositionNaut miles runAvg speedWind from/ knotsBaromVisibWave heightAir tempDewpointWater temp
2017-Nov-17 18:47N 10°19' W 075°35'0 0.0
2017-Nov-17 18:29N 10°19' W 075°35'0 0.0
2017-Nov-17 17:59N 10°19' W 075°35'0 0.0
2017-Nov-17 17:29N 10°19' W 075°35'0 0.0
2017-Nov-17 16:59N 10°19' W 075°35'0 0.0
2017-Nov-17 16:29N 10°19' W 075°35'0 0.0
2017-Nov-17 15:59N 10°19' W 075°35'0 0.0
2017-Nov-17 15:29N 10°19' W 075°35'0 0.0
2017-Nov-17 14:59N 10°19' W 075°35'0 0.0
2017-Nov-17 14:29N 10°19' W 075°35'0 0.0
2017-Nov-17 13:54N 10°19' W 075°35'3 6.8
2017-Nov-17 13:31N 10°21' W 075°33'4 7.2
2017-Nov-17 13:00N 10°19' W 075°36'1 2.2
2017-Nov-17 12:28N 10°19' W 075°35'1 2.1
2017-Nov-17 12:00N 10°19' W 075°36'1 1.8
2017-Nov-17 11:28N 10°19' W 075°35'0 0.0
2017-Nov-17 10:58N 10°19' W 075°35'0 0.0
2017-Nov-17 10:16N 10°19' W 075°35'0 0.0
2017-Nov-17 09:58N 10°19' W 075°35'2 3.7
2017-Nov-17 09:29N 10°19' W 075°36'2 0.7
2017-Nov-17 06:50N 10°19' W 075°35'0 0.0
2017-Nov-17 06:23N 10°19' W 075°35'0 0.0
2017-Nov-17 06:00N 10°19' W 075°35'0 0.0
2017-Nov-17 05:26N 10°19' W 075°35'0 0.0
2017-Nov-17 04:56N 10°19' W 075°35'0 0.0
2017-Nov-17 04:26N 10°19' W 075°35'0 0.0
2017-Nov-17 03:59N 10°19' W 075°35'0 0.0
2017-Nov-17 03:26N 10°19' W 075°35'0 0.2
2017-Nov-17 02:55N 10°19' W 075°35'0 0.2
2017-Nov-17 02:21N 10°19' W 075°35'0 0.0
2017-Nov-17 02:00N 10°19' W 075°35'0 0.0
2017-Nov-17 01:15N 10°19' W 075°35'0 0.0
2017-Nov-16 23:51N 10°19' W 075°35'0 0.0
2017-Nov-16 23:27N 10°19' W 075°35'0 0.0
2017-Nov-16 22:57N 10°19' W 075°35'0 0.0
2017-Nov-16 22:27N 10°19' W 075°35'0 0.3
2017-Nov-16 22:00N 10°19' W 075°35'0 0.3
2017-Nov-16 21:30N 10°19' W 075°35'1 2.3
2017-Nov-16 21:00N 10°19' W 075°36'1 2.1
2017-Nov-16 20:30N 10°19' W 075°35'1 0.9
2017-Nov-16 19:54N 10°19' W 075°35'1 1.3
2017-Nov-16 19:28N 10°19' W 075°35'0 0.0
2017-Nov-16 18:58N 10°19' W 075°35'0 0.0
2017-Nov-16 18:28N 10°19' W 075°35'5 3.1
2017-Nov-16 16:48N 10°22' W 075°31'0 0.0
2017-Nov-16 16:18N 10°22' W 075°31'0 0.0
2017-Nov-16 15:57N 10°22' W 075°31'0 0.0
2017-Nov-16 15:24N 10°22' W 075°31'0 0.0
2017-Nov-16 14:57N 10°22' W 075°31'0 0.0
2017-Nov-16 13:26N 10°22' W 075°31'3 5.4
2017-Nov-16 12:49N 10°25' W 075°33'515.6
2017-Nov-16 12:30N 10°20' W 075°32'1 1.5
2017-Nov-16 11:58N 10°19' W 075°32'2 3.9
2017-Nov-16 11:30N 10°19' W 075°34'0 0.6
2017-Nov-16 10:52N 10°19' W 075°35'0 0.5
2017-Nov-16 10:30N 10°19' W 075°35'0 0.3
2017-Nov-16 09:50N 10°19' W 075°35'0 0.0
2017-Nov-16 09:26N 10°19' W 075°35'0 0.0
2017-Nov-16 08:10N 10°19' W 075°35'0 0.0
2017-Nov-16 07:58N 10°19' W 075°35'0 0.0
2017-Nov-16 07:28N 10°19' W 075°35'0 0.0
2017-Nov-16 06:58N 10°19' W 075°35'0 0.0
2017-Nov-16 06:28N 10°19' W 075°35'0 0.0
2017-Nov-16 05:52N 10°19' W 075°35'0 0.1
2017-Nov-16 03:37N 10°19' W 075°35'0 0.3
2017-Nov-16 03:12N 10°19' W 075°35'0 0.0
2017-Nov-16 03:00N 10°19' W 075°35'0 0.0
2017-Nov-16 02:09N 10°19' W 075°35'0 0.0
2017-Nov-16 02:00N 10°19' W 075°35'0 0.0
2017-Nov-16 01:30N 10°19' W 075°35'0 0.0
2017-Nov-16 00:55N 10°19' W 075°35'0 0.0
2017-Nov-16 00:25N 10°19' W 075°35'0 0.0
2017-Nov-15 23:57N 10°19' W 075°35'0 0.3
2017-Nov-15 23:29N 10°19' W 075°35'0 0.0
2017-Nov-15 22:59N 10°19' W 075°35'0 0.0
2017-Nov-15 21:53N 10°19' W 075°35'0 0.1
2017-Nov-15 21:29N 10°19' W 075°35'0 0.1
2017-Nov-15 20:56N 10°19' W 075°35'0 0.3
2017-Nov-15 20:30N 10°19' W 075°35'0 0.2
2017-Nov-15 20:00N 10°19' W 075°35'0 0.0
2017-Nov-15 19:24N 10°19' W 075°35'0 0.0
2017-Nov-15 19:00N 10°19' W 075°35'0 0.0
2017-Nov-15 18:30N 10°19' W 075°35'1 2.5
2017-Nov-15 18:00N 10°19' W 075°36'1 2.3
2017-Nov-15 17:27N 10°19' W 075°35'0 0.0
2017-Nov-15 16:57N 10°19' W 075°35'1 2.6
2017-Nov-15 16:28N 10°19' W 075°36'1 2.4
2017-Nov-15 15:57N 10°19' W 075°35'0 0.0
2017-Nov-15 15:18N 10°19' W 075°35'0 0.0
2017-Nov-15 14:57N 10°19' W 075°35'0 0.0
2017-Nov-15 14:30N 10°19' W 075°35'0 0.3
2017-Nov-15 13:57N 10°19' W 075°35'0 0.3
2017-Nov-15 13:19N 10°19' W 075°35'0 0.0
2017-Nov-15 12:58N 10°19' W 075°35'2 3.6
2017-Nov-15 12:30N 10°19' W 075°36'2 3.3
2017-Nov-15 11:59N 10°19' W 075°35'0 0.0
2017-Nov-15 11:29N 10°19' W 075°35'0 0.0
2017-Nov-15 10:59N 10°19' W 075°35'  
2017-Nov-12 00:10N 10°19' W 075°35'0 0.1
2017-Nov-11 23:15N 10°19' W 075°35'0 0.0
2017-Nov-11 23:00N 10°19' W 075°35'0 0.0
2017-Nov-11 22:24N 10°19' W 075°35'0 0.3
2017-Nov-11 22:00N 10°19' W 075°35'0 0.2
2017-Nov-11 21:29N 10°19' W 075°35'0 0.0
2017-Nov-11 20:59N 10°19' W 075°35'0 0.0
2017-Nov-11 20:29N 10°19' W 075°35'0 0.0
2017-Nov-11 19:59N 10°19' W 075°35'0 0.0
2017-Nov-11 19:29N 10°19' W 075°35'0 0.1
2017-Nov-11 19:00N 10°19' W 075°35'0 0.1
2017-Nov-11 18:25N 10°19' W 075°35'0 0.0
2017-Nov-11 18:00N 10°19' W 075°35'0 0.0
2017-Nov-11 17:30N 10°19' W 075°35'0 0.0
2017-Nov-11 17:00N 10°19' W 075°35'0 0.0
2017-Nov-11 16:24N 10°19' W 075°35'0 0.0
2017-Nov-11 16:00N 10°19' W 075°35'0 0.2
2017-Nov-11 15:30N 10°19' W 075°35'0 0.2
2017-Nov-11 14:59N 10°19' W 075°35'2 4.1
2017-Nov-11 14:29N 10°18' W 075°37'2 4.2
2017-Nov-11 14:00N 10°19' W 075°35'0 0.0
2017-Nov-11 13:27N 10°19' W 075°35'0 0.0
2017-Nov-11 12:57N 10°19' W 075°35'0 0.0
2017-Nov-11 12:30N 10°19' W 075°35'0 0.0
2017-Nov-11 12:00N 10°19' W 075°35'0 0.0
2017-Nov-11 11:30N 10°19' W 075°35'0 0.0
2017-Nov-11 11:00N 10°19' W 075°35'0 0.2
2017-Nov-11 10:30N 10°19' W 075°35'1 2.9
2017-Nov-11 09:59N 10°19' W 075°36'1 2.9
2017-Nov-11 09:29N 10°19' W 075°35'0 0.0
2017-Nov-11 07:59N 10°19' W 075°35'0 0.0
2017-Nov-11 07:29N 10°19' W 075°35'2 4.5
2017-Nov-11 06:56N 10°18' W 075°37'2 5.4
2017-Nov-11 06:29N 10°19' W 075°35'2 3.1
2017-Nov-11 06:00N 10°19' W 075°36'2 1.5
2017-Nov-11 04:59N 10°19' W 075°35'0 0.0
2017-Nov-11 04:29N 10°19' W 075°35'0 0.2
2017-Nov-11 03:32N 10°19' W 075°35'0 0.8
2017-Nov-11 03:15N 10°19' W 075°35'0 0.0
2017-Nov-11 02:55N 10°19' W 075°35'0 0.0
2017-Nov-11 01:37N 10°19' W 075°35'0 0.0
2017-Nov-11 01:28N 10°19' W 075°35'0 0.0
2017-Nov-11 00:55N 10°19' W 075°35'1 0.9
2017-Nov-10 23:43N 10°19' W 075°36'1 4.4
2017-Nov-10 23:28N 10°19' W 075°35'0 0.0
2017-Nov-10 23:00N 10°19' W 075°35'0 0.0
2017-Nov-10 22:28N 10°19' W 075°35'0 0.2
2017-Nov-10 21:57N 10°19' W 075°35'0 0.0
2017-Nov-10 21:27N 10°19' W 075°35'0 0.0
2017-Nov-10 20:57N 10°19' W 075°35'0 0.3
2017-Nov-10 20:29N 10°19' W 075°35'0 0.3
2017-Nov-10 19:55N 10°19' W 075°35'0 0.0
2017-Nov-10 19:19N 10°19' W 075°35'0 0.0
2017-Nov-10 18:55N 10°19' W 075°35'0 0.0
2017-Nov-10 18:25N 10°19' W 075°35'0 0.2
2017-Nov-10 17:55N 10°19' W 075°35'0 0.0
2017-Nov-10 17:25N 10°19' W 075°35'3 6.2
2017-Nov-10 17:00N 10°21' W 075°32'3 0.1
2017-Nov-09 12:38N 10°19' W 075°35'0 0.0
2017-Nov-09 12:20N 10°19' W 075°35'0 0.0
2017-Nov-09 11:59N 10°19' W 075°35'0 0.0
2017-Nov-09 11:26N 10°19' W 075°35'0 0.3
2017-Nov-09 11:00N 10°19' W 075°35'0 0.0
2017-Nov-09 08:08N 10°19' W 075°35'0 3.2
2017-Nov-09 08:00N 10°19' W 075°35'0 0.7
2017-Nov-09 07:25N 10°19' W 075°35'0 0.0
2017-Nov-09 06:40N 10°19' W 075°35'0 0.0
2017-Nov-09 06:28N 10°19' W 075°35'0 0.0
2017-Nov-09 05:56N 10°19' W 075°35'0 0.0
2017-Nov-09 04:50N 10°19' W 075°35'0 0.0
2017-Nov-09 04:29N 10°19' W 075°35'0 0.0
2017-Nov-09 03:59N 10°19' W 075°35'0 0.0
2017-Nov-09 03:26N 10°19' W 075°35'0 0.0
2017-Nov-09 02:59N 10°19' W 075°35'0 0.0
2017-Nov-09 02:29N 10°19' W 075°35'0 0.0
2017-Nov-09 01:53N 10°19' W 075°35'0 0.0
2017-Nov-09 01:29N 10°19' W 075°35'0 0.0
2017-Nov-09 00:56N 10°19' W 075°35'0 0.0
2017-Nov-09 00:29N 10°19' W 075°35'0 0.0
2017-Nov-08 23:59N 10°19' W 075°35'0 0.2
2017-Nov-08 23:16N 10°19' W 075°35'0 0.0
2017-Nov-08 22:52N 10°19' W 075°35'0 0.0
2017-Nov-08 22:28N 10°19' W 075°35'0 0.0
2017-Nov-08 21:46N 10°19' W 075°35'0 0.0
2017-Nov-08 21:22N 10°19' W 075°35'1 1.8
2017-Nov-08 20:57N 10°19' W 075°35'1 1.7
2017-Nov-08 20:30N 10°19' W 075°35'1 1.9
2017-Nov-08 20:00N 10°19' W 075°36'1 0.4
2017-Nov-08 17:32N 10°19' W 075°35'0 0.0
2017-Nov-08 15:56N 10°19' W 075°35'0 0.0
2017-Nov-08 15:29N 10°19' W 075°35'0 0.0
2017-Nov-08 14:53N 10°19' W 075°35'0 0.0
2017-Nov-08 14:27N 10°19' W 075°35'0 0.0
2017-Nov-08 13:59N 10°19' W 075°35'0 0.0
2017-Nov-08 12:08N 10°19' W 075°35'0 0.0
2017-Nov-08 11:58N 10°19' W 075°35'0 0.3
2017-Nov-08 11:29N 10°19' W 075°35'0 0.4
2017-Nov-08 10:59N 10°19' W 075°35'0 0.4
2017-Nov-08 10:30N 10°19' W 075°35'0 0.0
2017-Nov-08 10:00N 10°19' W 075°35'1 2.0
2017-Nov-08 09:27N 10°19' W 075°36'1 0.8
2017-Nov-08 08:01N 10°19' W 075°35'0 0.1
2017-Nov-08 07:55N 10°19' W 075°35'0 0.0
2017-Nov-08 07:25N 10°19' W 075°35'0 0.0
2017-Nov-08 06:55N 10°19' W 075°35'0 0.0
2017-Nov-08 06:25N 10°19' W 075°35'0 0.0
2017-Nov-08 05:55N 10°19' W 075°35'0 0.0
2017-Nov-08 05:25N 10°19' W 075°35'0 0.0
2017-Nov-08 04:58N 10°19' W 075°35'0 0.0
2017-Nov-08 04:25N 10°19' W 075°35'2 3.0
2017-Nov-08 03:50N 10°19' W 075°36'2 4.9
2017-Nov-08 03:28N 10°19' W 075°35'0 0.0
2017-Nov-08 02:57N 10°19' W 075°35'0 0.0
2017-Nov-08 02:28N 10°19' W 075°35'0 0.0
2017-Nov-08 01:53N 10°19' W 075°35'0 0.1
2017-Nov-08 01:30N 10°19' W 075°35'0 0.1
2017-Nov-08 00:59N 10°19' W 075°35'0 0.0
2017-Nov-08 00:26N 10°19' W 075°35'6 3.6
2017-Nov-07 22:45N 10°25' W 075°32'0 0.0
2017-Nov-07 22:15N 10°25' W 075°32'0 0.7
2017-Nov-07 21:59N 10°24' W 075°32'611.2
2017-Nov-07 21:27N 10°19' W 075°35'0 0.0
2017-Nov-07 20:57N 10°19' W 075°35'0 0.0
2017-Nov-07 20:27N 10°19' W 075°35'0 0.0
2017-Nov-07 20:00N 10°19' W 075°35'0 0.0
2017-Nov-07 19:29N 10°19' W 075°35'0 0.0
2017-Nov-07 18:59N 10°19' W 075°35'  
Track history (hours):
 
Tides and Currents Weather Stations Pressure Air Temp Water Temp Dewpoint Dewpoint Depression Visibility Wind Speed Wind Dir Waves Ship Positions

Pilot Boat Minera I

Last reported at 2017-Nov-17 18:47 UTC. Time now 2017-Nov-22 11:13 UTC.
Position N 10°19' W 075°35'.

Length 11 m.

Type: Pilot. MMSI: 730114000.

Date/timePositionNaut miles runAvg speedWind from/ knotsBaromVisibWave heightAir tempDewpointWater temp
2017-Nov-17 18:47N 10°19' W 075°35'0 0.0
2017-Nov-17 18:29N 10°19' W 075°35'0 0.0
2017-Nov-17 17:59N 10°19' W 075°35'0 0.0
2017-Nov-17 17:29N 10°19' W 075°35'0 0.0
2017-Nov-17 16:59N 10°19' W 075°35'0 0.0
2017-Nov-17 16:29N 10°19' W 075°35'0 0.0
2017-Nov-17 15:59N 10°19' W 075°35'0 0.0
2017-Nov-17 15:29N 10°19' W 075°35'0 0.0
2017-Nov-17 14:59N 10°19' W 075°35'0 0.0
2017-Nov-17 14:29N 10°19' W 075°35'0 0.0
2017-Nov-17 13:54N 10°19' W 075°35'3 6.8
2017-Nov-17 13:31N 10°21' W 075°33'4 7.2
2017-Nov-17 13:00N 10°19' W 075°36'1 2.2
2017-Nov-17 12:28N 10°19' W 075°35'1 2.1
2017-Nov-17 12:00N 10°19' W 075°36'1 1.8
2017-Nov-17 11:28N 10°19' W 075°35'0 0.0
2017-Nov-17 10:58N 10°19' W 075°35'0 0.0
2017-Nov-17 10:16N 10°19' W 075°35'0 0.0
2017-Nov-17 09:58N 10°19' W 075°35'2 3.7
2017-Nov-17 09:29N 10°19' W 075°36'2 0.7
2017-Nov-17 06:50N 10°19' W 075°35'0 0.0
2017-Nov-17 06:23N 10°19' W 075°35'0 0.0
2017-Nov-17 06:00N 10°19' W 075°35'0 0.0
2017-Nov-17 05:26N 10°19' W 075°35'0 0.0
2017-Nov-17 04:56N 10°19' W 075°35'0 0.0
2017-Nov-17 04:26N 10°19' W 075°35'0 0.0
2017-Nov-17 03:59N 10°19' W 075°35'0 0.0
2017-Nov-17 03:26N 10°19' W 075°35'0 0.2
2017-Nov-17 02:55N 10°19' W 075°35'0 0.2
2017-Nov-17 02:21N 10°19' W 075°35'0 0.0
2017-Nov-17 02:00N 10°19' W 075°35'0 0.0
2017-Nov-17 01:15N 10°19' W 075°35'0 0.0
2017-Nov-16 23:51N 10°19' W 075°35'0 0.0
2017-Nov-16 23:27N 10°19' W 075°35'0 0.0
2017-Nov-16 22:57N 10°19' W 075°35'0 0.0
2017-Nov-16 22:27N 10°19' W 075°35'0 0.3
2017-Nov-16 22:00N 10°19' W 075°35'0 0.3
2017-Nov-16 21:30N 10°19' W 075°35'1 2.3
2017-Nov-16 21:00N 10°19' W 075°36'1 2.1
2017-Nov-16 20:30N 10°19' W 075°35'1 0.9
2017-Nov-16 19:54N 10°19' W 075°35'1 1.3
2017-Nov-16 19:28N 10°19' W 075°35'0 0.0
2017-Nov-16 18:58N 10°19' W 075°35'0 0.0
2017-Nov-16 18:28N 10°19' W 075°35'5 3.1
2017-Nov-16 16:48N 10°22' W 075°31'0 0.0
2017-Nov-16 16:18N 10°22' W 075°31'0 0.0
2017-Nov-16 15:57N 10°22' W 075°31'0 0.0
2017-Nov-16 15:24N 10°22' W 075°31'0 0.0
2017-Nov-16 14:57N 10°22' W 075°31'0 0.0
2017-Nov-16 13:26N 10°22' W 075°31'3 5.4
2017-Nov-16 12:49N 10°25' W 075°33'515.6
2017-Nov-16 12:30N 10°20' W 075°32'1 1.5
2017-Nov-16 11:58N 10°19' W 075°32'2 3.9
2017-Nov-16 11:30N 10°19' W 075°34'0 0.6
2017-Nov-16 10:52N 10°19' W 075°35'0 0.5
2017-Nov-16 10:30N 10°19' W 075°35'0 0.3
2017-Nov-16 09:50N 10°19' W 075°35'0 0.0
2017-Nov-16 09:26N 10°19' W 075°35'0 0.0
2017-Nov-16 08:10N 10°19' W 075°35'0 0.0
2017-Nov-16 07:58N 10°19' W 075°35'0 0.0
2017-Nov-16 07:28N 10°19' W 075°35'0 0.0
2017-Nov-16 06:58N 10°19' W 075°35'0 0.0
2017-Nov-16 06:28N 10°19' W 075°35'0 0.0
2017-Nov-16 05:52N 10°19' W 075°35'0 0.1
2017-Nov-16 03:37N 10°19' W 075°35'0 0.3
2017-Nov-16 03:12N 10°19' W 075°35'0 0.0
2017-Nov-16 03:00N 10°19' W 075°35'0 0.0
2017-Nov-16 02:09N 10°19' W 075°35'0 0.0
2017-Nov-16 02:00N 10°19' W 075°35'0 0.0
2017-Nov-16 01:30N 10°19' W 075°35'0 0.0
2017-Nov-16 00:55N 10°19' W 075°35'0 0.0
2017-Nov-16 00:25N 10°19' W 075°35'0 0.0
2017-Nov-15 23:57N 10°19' W 075°35'0 0.3
2017-Nov-15 23:29N 10°19' W 075°35'0 0.0
2017-Nov-15 22:59N 10°19' W 075°35'0 0.0
2017-Nov-15 21:53N 10°19' W 075°35'0 0.1
2017-Nov-15 21:29N 10°19' W 075°35'0 0.1
2017-Nov-15 20:56N 10°19' W 075°35'0 0.3
2017-Nov-15 20:30N 10°19' W 075°35'0 0.2
2017-Nov-15 20:00N 10°19' W 075°35'0 0.0
2017-Nov-15 19:24N 10°19' W 075°35'0 0.0
2017-Nov-15 19:00N 10°19' W 075°35'0 0.0
2017-Nov-15 18:30N 10°19' W 075°35'1 2.5
2017-Nov-15 18:00N 10°19' W 075°36'1 2.3
2017-Nov-15 17:27N 10°19' W 075°35'0 0.0
2017-Nov-15 16:57N 10°19' W 075°35'1 2.6
2017-Nov-15 16:28N 10°19' W 075°36'1 2.4
2017-Nov-15 15:57N 10°19' W 075°35'0 0.0
2017-Nov-15 15:18N 10°19' W 075°35'0 0.0
2017-Nov-15 14:57N 10°19' W 075°35'0 0.0
2017-Nov-15 14:30N 10°19' W 075°35'0 0.3
2017-Nov-15 13:57N 10°19' W 075°35'0 0.3
2017-Nov-15 13:19N 10°19' W 075°35'0 0.0
2017-Nov-15 12:58N 10°19' W 075°35'2 3.6
2017-Nov-15 12:30N 10°19' W 075°36'2 3.3
2017-Nov-15 11:59N 10°19' W 075°35'0 0.0
2017-Nov-15 11:29N 10°19' W 075°35'0 0.0
2017-Nov-15 10:59N 10°19' W 075°35'  
2017-Nov-12 00:10N 10°19' W 075°35'0 0.1
2017-Nov-11 23:15N 10°19' W 075°35'0 0.0
2017-Nov-11 23:00N 10°19' W 075°35'0 0.0
2017-Nov-11 22:24N 10°19' W 075°35'0 0.3
2017-Nov-11 22:00N 10°19' W 075°35'0 0.2
2017-Nov-11 21:29N 10°19' W 075°35'0 0.0
2017-Nov-11 20:59N 10°19' W 075°35'0 0.0
2017-Nov-11 20:29N 10°19' W 075°35'0 0.0
2017-Nov-11 19:59N 10°19' W 075°35'0 0.0
2017-Nov-11 19:29N 10°19' W 075°35'0 0.1
2017-Nov-11 19:00N 10°19' W 075°35'0 0.1
2017-Nov-11 18:25N 10°19' W 075°35'0 0.0
2017-Nov-11 18:00N 10°19' W 075°35'0 0.0
2017-Nov-11 17:30N 10°19' W 075°35'0 0.0
2017-Nov-11 17:00N 10°19' W 075°35'0 0.0
2017-Nov-11 16:24N 10°19' W 075°35'0 0.0
2017-Nov-11 16:00N 10°19' W 075°35'0 0.2
2017-Nov-11 15:30N 10°19' W 075°35'0 0.2
2017-Nov-11 14:59N 10°19' W 075°35'2 4.1
2017-Nov-11 14:29N 10°18' W 075°37'2 4.2
2017-Nov-11 14:00N 10°19' W 075°35'0 0.0
2017-Nov-11 13:27N 10°19' W 075°35'0 0.0
2017-Nov-11 12:57N 10°19' W 075°35'0 0.0
2017-Nov-11 12:30N 10°19' W 075°35'0 0.0
2017-Nov-11 12:00N 10°19' W 075°35'0 0.0
2017-Nov-11 11:30N 10°19' W 075°35'0 0.0
2017-Nov-11 11:00N 10°19' W 075°35'0 0.2
2017-Nov-11 10:30N 10°19' W 075°35'1 2.9
2017-Nov-11 09:59N 10°19' W 075°36'1 2.9
2017-Nov-11 09:29N 10°19' W 075°35'0 0.0
2017-Nov-11 07:59N 10°19' W 075°35'0 0.0
2017-Nov-11 07:29N 10°19' W 075°35'2 4.5
2017-Nov-11 06:56N 10°18' W 075°37'2 5.4
2017-Nov-11 06:29N 10°19' W 075°35'2 3.1
2017-Nov-11 06:00N 10°19' W 075°36'2 1.5
2017-Nov-11 04:59N 10°19' W 075°35'0 0.0
2017-Nov-11 04:29N 10°19' W 075°35'0 0.2
2017-Nov-11 03:32N 10°19' W 075°35'0 0.8
2017-Nov-11 03:15N 10°19' W 075°35'0 0.0
2017-Nov-11 02:55N 10°19' W 075°35'0 0.0
2017-Nov-11 01:37N 10°19' W 075°35'0 0.0
2017-Nov-11 01:28N 10°19' W 075°35'0 0.0
2017-Nov-11 00:55N 10°19' W 075°35'1 0.9
2017-Nov-10 23:43N 10°19' W 075°36'1 4.4
2017-Nov-10 23:28N 10°19' W 075°35'0 0.0
2017-Nov-10 23:00N 10°19' W 075°35'0 0.0
2017-Nov-10 22:28N 10°19' W 075°35'0 0.2
2017-Nov-10 21:57N 10°19' W 075°35'0 0.0
2017-Nov-10 21:27N 10°19' W 075°35'0 0.0
2017-Nov-10 20:57N 10°19' W 075°35'0 0.3
2017-Nov-10 20:29N 10°19' W 075°35'0 0.3
2017-Nov-10 19:55N 10°19' W 075°35'0 0.0
2017-Nov-10 19:19N 10°19' W 075°35'0 0.0
2017-Nov-10 18:55N 10°19' W 075°35'0 0.0
2017-Nov-10 18:25N 10°19' W 075°35'0 0.2
2017-Nov-10 17:55N 10°19' W 075°35'0 0.0
2017-Nov-10 17:25N 10°19' W 075°35'3 6.2
2017-Nov-10 17:00N 10°21' W 075°32'3 0.1
2017-Nov-09 12:38N 10°19' W 075°35'0 0.0
2017-Nov-09 12:20N 10°19' W 075°35'0 0.0
2017-Nov-09 11:59N 10°19' W 075°35'0 0.0
2017-Nov-09 11:26N 10°19' W 075°35'0 0.3
2017-Nov-09 11:00N 10°19' W 075°35'0 0.0
2017-Nov-09 08:08N 10°19' W 075°35'0 3.2
2017-Nov-09 08:00N 10°19' W 075°35'0 0.7
2017-Nov-09 07:25N 10°19' W 075°35'0 0.0
2017-Nov-09 06:40N 10°19' W 075°35'0 0.0
2017-Nov-09 06:28N 10°19' W 075°35'0 0.0
2017-Nov-09 05:56N 10°19' W 075°35'0 0.0
2017-Nov-09 04:50N 10°19' W 075°35'0 0.0
2017-Nov-09 04:29N 10°19' W 075°35'0 0.0
2017-Nov-09 03:59N 10°19' W 075°35'0 0.0
2017-Nov-09 03:26N 10°19' W 075°35'0 0.0
2017-Nov-09 02:59N 10°19' W 075°35'0 0.0
2017-Nov-09 02:29N 10°19' W 075°35'0 0.0
2017-Nov-09 01:53N 10°19' W 075°35'0 0.0
2017-Nov-09 01:29N 10°19' W 075°35'0 0.0
2017-Nov-09 00:56N 10°19' W 075°35'0 0.0
2017-Nov-09 00:29N 10°19' W 075°35'0 0.0
2017-Nov-08 23:59N 10°19' W 075°35'0 0.2
2017-Nov-08 23:16N 10°19' W 075°35'0 0.0
2017-Nov-08 22:52N 10°19' W 075°35'0 0.0
2017-Nov-08 22:28N 10°19' W 075°35'0 0.0
2017-Nov-08 21:46N 10°19' W 075°35'0 0.0
2017-Nov-08 21:22N 10°19' W 075°35'1 1.8
2017-Nov-08 20:57N 10°19' W 075°35'1 1.7
2017-Nov-08 20:30N 10°19' W 075°35'1 1.9
2017-Nov-08 20:00N 10°19' W 075°36'1 0.4
2017-Nov-08 17:32N 10°19' W 075°35'0 0.0
2017-Nov-08 15:56N 10°19' W 075°35'0 0.0
2017-Nov-08 15:29N 10°19' W 075°35'0 0.0
2017-Nov-08 14:53N 10°19' W 075°35'0 0.0
2017-Nov-08 14:27N 10°19' W 075°35'0 0.0
2017-Nov-08 13:59N 10°19' W 075°35'0 0.0
2017-Nov-08 12:08N 10°19' W 075°35'0 0.0
2017-Nov-08 11:58N 10°19' W 075°35'0 0.3
2017-Nov-08 11:29N 10°19' W 075°35'0 0.4
2017-Nov-08 10:59N 10°19' W 075°35'0 0.4
2017-Nov-08 10:30N 10°19' W 075°35'0 0.0
2017-Nov-08 10:00N 10°19' W 075°35'1 2.0
2017-Nov-08 09:27N 10°19' W 075°36'1 0.8
2017-Nov-08 08:01N 10°19' W 075°35'0 0.1
2017-Nov-08 07:55N 10°19' W 075°35'0 0.0
2017-Nov-08 07:25N 10°19' W 075°35'0 0.0
2017-Nov-08 06:55N 10°19' W 075°35'0 0.0
2017-Nov-08 06:25N 10°19' W 075°35'0 0.0
2017-Nov-08 05:55N 10°19' W 075°35'0 0.0
2017-Nov-08 05:25N 10°19' W 075°35'0 0.0
2017-Nov-08 04:58N 10°19' W 075°35'0 0.0
2017-Nov-08 04:25N 10°19' W 075°35'2 3.0
2017-Nov-08 03:50N 10°19' W 075°36'2 4.9
2017-Nov-08 03:28N 10°19' W 075°35'0 0.0
2017-Nov-08 02:57N 10°19' W 075°35'0 0.0
2017-Nov-08 02:28N 10°19' W 075°35'0 0.0
2017-Nov-08 01:53N 10°19' W 075°35'0 0.1
2017-Nov-08 01:30N 10°19' W 075°35'0 0.1
2017-Nov-08 00:59N 10°19' W 075°35'0 0.0
2017-Nov-08 00:26N 10°19' W 075°35'6 3.6
2017-Nov-07 22:45N 10°25' W 075°32'0 0.0
2017-Nov-07 22:15N 10°25' W 075°32'0 0.7
2017-Nov-07 21:59N 10°24' W 075°32'611.2
2017-Nov-07 21:27N 10°19' W 075°35'0 0.0
2017-Nov-07 20:57N 10°19' W 075°35'0 0.0
2017-Nov-07 20:27N 10°19' W 075°35'0 0.0
2017-Nov-07 20:00N 10°19' W 075°35'0 0.0
2017-Nov-07 19:29N 10°19' W 075°35'0 0.0
2017-Nov-07 18:59N 10°19' W 075°35'  

Dump ship's entire track history